Time,TemperatureF,DewpointF,PressureIn,WindDirection,WindDirectionDegrees,WindSpeedMPH,WindSpeedGustMPH,Humidity,HourlyPrecipIn,Conditions,Clouds,dailyrainin,SolarRadiationWatts/m^2,SoftwareType,DateUTC
2013-08-10 00:11:00,67.0,38.0,-100.00,South,191,7.0,11.0,35,0.00,,,0.00,0.000000,,2013-08-10 06:11:00,
2013-08-10 00:22:00,67.0,38.0,-100.00,South,191,7.0,11.0,35,0.00,,,0.00,0.000000,,2013-08-10 06:22:00,
2013-08-10 00:32:00,67.0,38.0,-100.00,South,191,7.0,11.0,35,0.00,,,0.00,0.000000,,2013-08-10 06:32:00,
2013-08-10 00:44:00,67.0,38.0,-100.00,South,191,7.0,11.0,35,0.00,,,0.00,0.000000,,2013-08-10 06:44:00,
2013-08-10 00:51:00,64.0,40.0,-100.00,North,10,3.0,6.0,41,0.00,,,0.00,0.000000,,2013-08-10 06:51:00,
2013-08-10 01:12:00,64.0,40.0,-100.00,North,10,3.0,6.0,41,0.00,,,0.00,0.000000,,2013-08-10 07:12:00,
2013-08-10 01:22:00,64.0,40.0,-100.00,North,10,3.0,6.0,41,0.00,,,0.00,0.000000,,2013-08-10 07:22:00,
2013-08-10 01:33:00,64.0,40.0,-100.00,North,10,3.0,6.0,41,0.00,,,0.00,0.000000,,2013-08-10 07:33:00,
2013-08-10 01:43:00,64.0,40.0,-100.00,North,10,3.0,6.0,41,0.00,,,0.00,0.000000,,2013-08-10 07:43:00,
2013-08-10 01:51:00,61.0,39.0,-100.00,SE,134,6.0,9.0,44,0.00,,,0.00,0.000000,,2013-08-10 07:51:00,
2013-08-10 02:12:00,61.0,39.0,-100.00,SE,134,6.0,9.0,44,0.00,,,0.00,0.000000,,2013-08-10 08:12:00,
2013-08-10 02:22:00,61.0,39.0,-100.00,SE,134,6.0,9.0,44,0.00,,,0.00,0.000000,,2013-08-10 08:22:00,
2013-08-10 02:32:00,61.0,39.0,-100.00,SE,134,6.0,9.0,44,0.00,,,0.00,0.000000,,2013-08-10 08:32:00,
2013-08-10 02:43:00,61.0,39.0,-100.00,SE,134,6.0,9.0,44,0.00,,,0.00,0.000000,,2013-08-10 08:43:00,
2013-08-10 02:51:00,59.0,40.0,-100.00,ENE,59,1.0,8.0,49,0.00,,,0.00,0.000000,,2013-08-10 08:51:00,
2013-08-10 03:12:00,59.0,40.0,-100.00,ENE,59,1.0,8.0,49,0.00,,,0.00,0.000000,,2013-08-10 09:12:00,
2013-08-10 03:22:00,59.0,40.0,-100.00,ENE,59,1.0,8.0,49,0.00,,,0.00,0.000000,,2013-08-10 09:22:00,
2013-08-10 03:32:00,59.0,40.0,-100.00,ENE,59,1.0,8.0,49,0.00,,,0.00,0.000000,,2013-08-10 09:32:00,
2013-08-10 03:43:00,59.0,40.0,-100.00,ENE,59,1.0,8.0,49,0.00,,,0.00,0.000000,,2013-08-10 09:43:00,
2013-08-10 03:51:00,58.0,39.0,-100.00,NW,321,2.0,8.0,49,0.00,,,0.00,0.000000,,2013-08-10 09:51:00,
2013-08-10 04:11:00,58.0,39.0,-100.00,NW,321,2.0,8.0,49,0.00,,,0.00,0.000000,,2013-08-10 10:11:00,
2013-08-10 04:22:00,58.0,39.0,-100.00,NW,321,2.0,8.0,49,0.00,,,0.00,0.000000,,2013-08-10 10:22:00,
2013-08-10 04:33:00,58.0,39.0,-100.00,NW,321,2.0,8.0,49,0.00,,,0.00,0.000000,,2013-08-10 10:33:00,
2013-08-10 04:44:00,58.0,39.0,-100.00,NW,321,2.0,8.0,49,0.00,,,0.00,0.000000,,2013-08-10 10:44:00,
2013-08-10 04:51:00,57.0,40.0,-100.00,ESE,108,3.0,7.0,52,0.00,,,0.00,0.000000,,2013-08-10 10:51:00,
2013-08-10 05:11:00,57.0,40.0,-100.00,ESE,108,3.0,7.0,52,0.00,,,0.00,0.000000,,2013-08-10 11:11:00,
2013-08-10 05:22:00,57.0,40.0,-100.00,ESE,108,3.0,7.0,52,0.00,,,0.00,0.000000,,2013-08-10 11:22:00,
2013-08-10 05:33:00,57.0,40.0,-100.00,ESE,108,3.0,7.0,52,0.00,,,0.00,0.000000,,2013-08-10 11:33:00,
2013-08-10 05:43:00,57.0,40.0,-100.00,ESE,108,3.0,7.0,52,0.00,,,0.00,0.000000,,2013-08-10 11:43:00,
2013-08-10 07:51:00,61.0,41.0,-100.00,North,1,1.0,6.0,47,-99.99,,,0.00,166.000000,,2013-08-10 13:51:00,
2013-08-10 08:12:00,61.0,41.0,-100.00,North,1,1.0,6.0,47,-99.99,,,0.00,166.000000,,2013-08-10 14:12:00,
2013-08-10 08:22:00,61.0,41.0,-100.00,North,1,1.0,6.0,47,-99.99,,,0.00,166.000000,,2013-08-10 14:22:00,
2013-08-10 08:32:00,61.0,41.0,-100.00,North,1,1.0,6.0,47,-99.99,,,0.00,166.000000,,2013-08-10 14:32:00,
2013-08-10 08:42:00,61.0,41.0,-100.00,North,1,1.0,6.0,47,-99.99,,,0.00,166.000000,,2013-08-10 14:42:00,
2013-08-10 08:51:00,65.0,41.0,-100.00,ENE,73,2.0,9.0,42,0.00,,,0.00,430.000000,,2013-08-10 14:51:00,
2013-08-10 09:11:00,65.0,41.0,-100.00,ENE,73,2.0,9.0,42,0.00,,,0.00,430.000000,,2013-08-10 15:11:00,
2013-08-10 09:22:00,65.0,41.0,-100.00,ENE,73,2.0,9.0,42,0.00,,,0.00,430.000000,,2013-08-10 15:22:00,
2013-08-10 09:33:00,65.0,41.0,-100.00,ENE,73,2.0,9.0,42,0.00,,,0.00,430.000000,,2013-08-10 15:33:00,
2013-08-10 09:43:00,65.0,41.0,-100.00,ENE,73,2.0,9.0,42,0.00,,,0.00,430.000000,,2013-08-10 15:43:00,
2013-08-10 09:51:00,69.0,42.0,-100.00,NE,35,3.0,8.0,37,0.00,,,0.00,632.000000,,2013-08-10 15:51:00,
2013-08-10 10:11:00,69.0,42.0,-100.00,NE,35,3.0,8.0,37,0.00,,,0.00,632.000000,,2013-08-10 16:11:00,
2013-08-10 10:22:00,69.0,42.0,-100.00,NE,35,3.0,8.0,37,0.00,,,0.00,632.000000,,2013-08-10 16:22:00,
2013-08-10 10:32:00,69.0,42.0,-100.00,NE,35,3.0,8.0,37,0.00,,,0.00,632.000000,,2013-08-10 16:32:00,
2013-08-10 10:43:00,69.0,42.0,-100.00,NE,35,3.0,8.0,37,0.00,,,0.00,632.000000,,2013-08-10 16:43:00,
2013-08-10 10:51:00,74.0,41.0,-100.00,North,360,3.0,8.0,30,0.00,,,0.00,805.000000,,2013-08-10 16:51:00,
2013-08-10 11:12:00,74.0,41.0,-100.00,North,360,3.0,8.0,30,0.00,,,0.00,805.000000,,2013-08-10 17:12:00,
2013-08-10 11:22:00,74.0,41.0,-100.00,North,360,3.0,8.0,30,0.00,,,0.00,805.000000,,2013-08-10 17:22:00,
2013-08-10 11:33:00,74.0,41.0,-100.00,North,360,3.0,8.0,30,0.00,,,0.00,805.000000,,2013-08-10 17:33:00,
2013-08-10 11:43:00,74.0,41.0,-100.00,North,360,3.0,8.0,30,0.00,,,0.00,805.000000,,2013-08-10 17:43:00,
2013-08-10 11:51:00,77.0,37.0,-100.00,WNW,300,6.0,12.0,24,0.00,,,0.00,906.000000,,2013-08-10 17:51:00,
2013-08-10 12:11:00,77.0,37.0,-100.00,WNW,300,6.0,12.0,24,0.00,,,0.00,906.000000,,2013-08-10 18:11:00,
2013-08-10 12:23:00,77.0,37.0,-100.00,WNW,300,6.0,12.0,24,0.00,,,0.00,906.000000,,2013-08-10 18:23:00,
2013-08-10 12:32:00,77.0,37.0,-100.00,WNW,300,6.0,12.0,24,0.00,,,0.00,906.000000,,2013-08-10 18:32:00,
2013-08-10 12:44:00,77.0,37.0,-100.00,WNW,300,6.0,12.0,24,0.00,,,0.00,906.000000,,2013-08-10 18:44:00,
2013-08-10 12:51:00,81.0,35.0,-100.00,West,262,23.0,33.0,19,0.00,,,0.00,1128.000000,,2013-08-10 18:51:00,
2013-08-10 13:11:00,81.0,35.0,-100.00,West,262,23.0,33.0,19,0.00,,,0.00,1128.000000,,2013-08-10 19:11:00,
2013-08-10 13:22:00,81.0,35.0,-100.00,West,262,23.0,33.0,19,0.00,,,0.00,1128.000000,,2013-08-10 19:22:00,
2013-08-10 13:33:00,81.0,35.0,-100.00,West,262,23.0,33.0,19,0.00,,,0.00,1128.000000,,2013-08-10 19:33:00,
2013-08-10 13:44:00,81.0,35.0,-100.00,West,262,23.0,33.0,19,0.00,,,0.00,1128.000000,,2013-08-10 19:44:00,
2013-08-10 13:51:00,82.0,36.0,-100.00,WSW,247,17.0,31.0,19,0.00,,,0.00,1035.000000,,2013-08-10 19:51:00,
2013-08-10 14:11:00,82.0,36.0,-100.00,WSW,247,17.0,31.0,19,0.00,,,0.00,1035.000000,,2013-08-10 20:11:00,
2013-08-10 14:22:00,82.0,36.0,-100.00,WSW,247,17.0,31.0,19,0.00,,,0.00,1035.000000,,2013-08-10 20:22:00,
2013-08-10 14:33:00,82.0,36.0,-100.00,WSW,247,17.0,31.0,19,0.00,,,0.00,1035.000000,,2013-08-10 20:33:00,
2013-08-10 14:43:00,82.0,36.0,-100.00,WSW,247,17.0,31.0,19,0.00,,,0.00,1035.000000,,2013-08-10 20:43:00,
2013-08-10 14:51:00,81.0,36.0,-100.00,West,277,18.0,32.0,20,0.00,,,0.00,1094.000000,,2013-08-10 20:51:00,
2013-08-10 15:12:00,81.0,36.0,-100.00,West,277,18.0,32.0,20,0.00,,,0.00,1094.000000,,2013-08-10 21:12:00,
2013-08-10 15:22:00,81.0,36.0,-100.00,West,277,18.0,32.0,20,0.00,,,0.00,1094.000000,,2013-08-10 21:22:00,
2013-08-10 15:32:00,81.0,36.0,-100.00,West,277,18.0,32.0,20,0.00,,,0.00,1094.000000,,2013-08-10 21:32:00,
2013-08-10 15:42:00,81.0,36.0,-100.00,West,277,18.0,32.0,20,0.00,,,0.00,1094.000000,,2013-08-10 21:42:00,
2013-08-10 15:51:00,79.0,34.0,-100.00,West,260,23.0,31.0,20,0.00,,,0.00,877.000000,,2013-08-10 21:51:00,
2013-08-10 16:11:00,79.0,34.0,-100.00,West,260,23.0,31.0,20,0.00,,,0.00,877.000000,,2013-08-10 22:11:00,
2013-08-10 16:21:00,79.0,34.0,-100.00,West,260,23.0,31.0,20,0.00,,,0.00,877.000000,,2013-08-10 22:21:00,
2013-08-10 16:32:00,79.0,34.0,-100.00,West,260,23.0,31.0,20,0.00,,,0.00,877.000000,,2013-08-10 22:32:00,
2013-08-10 16:43:00,79.0,34.0,-100.00,West,260,23.0,31.0,20,0.00,,,0.00,877.000000,,2013-08-10 22:43:00,
2013-08-10 16:51:00,79.0,33.0,-100.00,West,262,20.0,30.0,19,0.00,,,0.00,538.000000,,2013-08-10 22:51:00,
2013-08-10 17:12:00,79.0,33.0,-100.00,West,262,20.0,30.0,19,0.00,,,0.00,538.000000,,2013-08-10 23:12:00,
2013-08-10 17:22:00,79.0,33.0,-100.00,West,262,20.0,30.0,19,0.00,,,0.00,538.000000,,2013-08-10 23:22:00,
2013-08-10 17:32:00,79.0,33.0,-100.00,West,262,20.0,30.0,19,0.00,,,0.00,538.000000,,2013-08-10 23:32:00,
2013-08-10 17:43:00,79.0,33.0,-100.00,West,262,20.0,30.0,19,0.00,,,0.00,538.000000,,2013-08-10 23:43:00,
2013-08-10 17:51:00,70.0,42.0,-100.00,SSE,166,14.0,30.0,36,0.00,,,0.00,159.000000,,2013-08-10 23:51:00,
2013-08-10 18:11:00,70.0,42.0,-100.00,SSE,166,14.0,30.0,36,0.00,,,0.00,159.000000,,2013-08-11 00:11:00,
2013-08-10 18:22:00,70.0,42.0,-100.00,SSE,166,14.0,30.0,36,0.00,,,0.00,159.000000,,2013-08-11 00:22:00,
2013-08-10 18:32:00,70.0,42.0,-100.00,SSE,166,14.0,30.0,36,0.00,,,0.00,159.000000,,2013-08-11 00:32:00,
2013-08-10 18:42:00,70.0,42.0,-100.00,SSE,166,14.0,30.0,36,0.00,,,0.00,159.000000,,2013-08-11 00:42:00,
2013-08-10 18:51:00,70.0,40.0,-100.00,SE,143,6.0,28.0,34,0.00,,,0.00,82.000000,,2013-08-11 00:51:00,
2013-08-10 19:11:00,70.0,40.0,-100.00,SE,143,6.0,28.0,34,0.00,,,0.00,82.000000,,2013-08-11 01:11:00,
2013-08-10 19:22:00,70.0,40.0,-100.00,SE,143,6.0,28.0,34,0.00,,,0.00,82.000000,,2013-08-11 01:22:00,
2013-08-10 19:32:00,70.0,40.0,-100.00,SE,143,6.0,28.0,34,0.00,,,0.00,82.000000,,2013-08-11 01:32:00,
2013-08-10 19:43:00,70.0,40.0,-100.00,SE,143,6.0,28.0,34,0.00,,,0.00,82.000000,,2013-08-11 01:43:00,
2013-08-10 19:51:00,66.0,44.0,-100.00,SE,144,14.0,26.0,45,0.00,,,0.00,55.000000,,2013-08-11 01:51:00,
2013-08-10 20:11:00,66.0,44.0,-100.00,SE,144,14.0,26.0,45,0.00,,,0.00,55.000000,,2013-08-11 02:11:00,
2013-08-10 20:22:00,66.0,44.0,-100.00,SE,144,14.0,26.0,45,0.00,,,0.00,55.000000,,2013-08-11 02:22:00,
2013-08-10 20:32:00,66.0,44.0,-100.00,SE,144,14.0,26.0,45,0.00,,,0.00,55.000000,,2013-08-11 02:32:00,
2013-08-10 20:43:00,66.0,44.0,-100.00,SE,144,14.0,26.0,45,0.00,,,0.00,55.000000,,2013-08-11 02:43:00,
2013-08-10 20:51:00,65.0,44.0,-100.00,SSW,202,5.0,23.0,46,0.00,,,0.00,6.000000,,2013-08-11 02:51:00,
2013-08-10 21:16:00,65.0,44.0,-100.00,SSW,202,5.0,23.0,46,0.00,,,0.00,6.000000,,2013-08-11 03:16:00,
2013-08-10 21:27:00,65.0,44.0,-100.00,SSW,202,5.0,23.0,46,0.00,,,0.00,6.000000,,2013-08-11 03:27:00,
2013-08-10 21:35:00,65.0,44.0,-100.00,SSW,202,5.0,23.0,46,0.00,,,0.00,6.000000,,2013-08-11 03:35:00,
2013-08-10 21:43:00,65.0,44.0,-100.00,SSW,202,5.0,23.0,46,0.00,,,0.00,6.000000,,2013-08-11 03:43:00,
2013-08-10 21:51:00,64.0,43.0,-100.00,SSW,199,6.0,9.0,47,0.00,,,0.00,0.000000,,2013-08-11 03:51:00,
2013-08-10 22:12:00,64.0,43.0,-100.00,SSW,199,6.0,9.0,47,0.00,,,0.00,0.000000,,2013-08-11 04:12:00,
2013-08-10 22:22:00,64.0,43.0,-100.00,SSW,199,6.0,9.0,47,0.00,,,0.00,0.000000,,2013-08-11 04:22:00,
2013-08-10 22:32:00,64.0,43.0,-100.00,SSW,199,6.0,9.0,47,0.00,,,0.00,0.000000,,2013-08-11 04:32:00,
2013-08-10 22:42:00,64.0,43.0,-100.00,SSW,199,6.0,9.0,47,0.00,,,0.00,0.000000,,2013-08-11 04:42:00,
2013-08-10 22:51:00,60.0,43.0,-100.00,WSW,237,7.0,9.0,54,0.00,,,0.00,0.000000,,2013-08-11 04:51:00,
2013-08-10 23:17:00,60.0,43.0,-100.00,WSW,237,7.0,9.0,54,0.00,,,0.00,0.000000,,2013-08-11 05:17:00,
2013-08-10 23:24:00,60.0,43.0,-100.00,WSW,237,7.0,9.0,54,0.00,,,0.00,0.000000,,2013-08-11 05:24:00,
2013-08-10 23:35:00,60.0,43.0,-100.00,WSW,237,7.0,9.0,54,0.00,,,0.00,0.000000,,2013-08-11 05:35:00,
2013-08-10 23:45:00,60.0,43.0,-100.00,WSW,237,7.0,9.0,54,0.00,,,0.00,0.000000,,2013-08-11 05:45:00,